sensor_id;sensor_type;location;lat;lon;timestamp;P1;durP1;ratioP1;P2;durP2;ratioP2
52414;SDS011;38340;52.964;6.086;2023-05-16T00:00:16;15.70;;;4.38;;
52414;SDS011;38340;52.964;6.086;2023-05-16T00:02:41;13.88;;;4.22;;
52414;SDS011;38340;52.964;6.086;2023-05-16T00:05:07;11.43;;;4.10;;
52414;SDS011;38340;52.964;6.086;2023-05-16T00:07:34;17.77;;;3.88;;
52414;SDS011;38340;52.964;6.086;2023-05-16T00:10:00;11.90;;;3.80;;
52414;SDS011;38340;52.964;6.086;2023-05-16T00:12:27;15.27;;;4.10;;
52414;SDS011;38340;52.964;6.086;2023-05-16T00:14:53;15.07;;;4.50;;
52414;SDS011;38340;52.964;6.086;2023-05-16T00:17:19;16.63;;;4.20;;
52414;SDS011;38340;52.964;6.086;2023-05-16T00:19:46;12.23;;;3.70;;
52414;SDS011;38340;52.964;6.086;2023-05-16T00:22:22;16.08;;;4.15;;
52414;SDS011;38340;52.964;6.086;2023-05-16T00:24:48;15.00;;;4.80;;
52414;SDS011;38340;52.964;6.086;2023-05-16T00:27:14;14.68;;;4.00;;
52414;SDS011;38340;52.964;6.086;2023-05-16T00:29:40;13.13;;;4.00;;
52414;SDS011;38340;52.964;6.086;2023-05-16T00:32:05;9.07;;;4.07;;
52414;SDS011;38340;52.964;6.086;2023-05-16T00:34:32;15.35;;;5.05;;
52414;SDS011;38340;52.964;6.086;2023-05-16T00:36:59;14.15;;;4.78;;
52414;SDS011;38340;52.964;6.086;2023-05-16T00:39:25;16.77;;;4.57;;
52414;SDS011;38340;52.964;6.086;2023-05-16T00:41:50;8.98;;;3.78;;
52414;SDS011;38340;52.964;6.086;2023-05-16T00:44:16;13.13;;;3.78;;
52414;SDS011;38340;52.964;6.086;2023-05-16T00:46:42;14.20;;;4.15;;
52414;SDS011;38340;52.964;6.086;2023-05-16T00:49:08;14.48;;;4.00;;
52414;SDS011;38340;52.964;6.086;2023-05-16T00:51:35;12.55;;;3.70;;
52414;SDS011;38340;52.964;6.086;2023-05-16T00:54:02;11.45;;;3.95;;
52414;SDS011;38340;52.964;6.086;2023-05-16T00:56:29;7.93;;;3.28;;
52414;SDS011;38340;52.964;6.086;2023-05-16T00:58:55;14.90;;;4.03;;
52414;SDS011;38340;52.964;6.086;2023-05-16T01:01:22;13.73;;;4.38;;
52414;SDS011;38340;52.964;6.086;2023-05-16T01:03:49;19.13;;;4.63;;
52414;SDS011;38340;52.964;6.086;2023-05-16T01:06:15;13.52;;;4.25;;
52414;SDS011;38340;52.964;6.086;2023-05-16T01:08:40;16.95;;;4.55;;
52414;SDS011;38340;52.964;6.086;2023-05-16T01:11:07;13.15;;;3.58;;
52414;SDS011;38340;52.964;6.086;2023-05-16T01:16:29;11.02;;;4.30;;
52414;SDS011;38340;52.964;6.086;2023-05-16T01:19:29;10.82;;;4.03;;
52414;SDS011;38340;52.964;6.086;2023-05-16T01:22:19;16.25;;;4.97;;
52414;SDS011;38340;52.964;6.086;2023-05-16T01:28:00;12.10;;;3.75;;
52414;SDS011;38340;52.964;6.086;2023-05-16T01:30:30;18.85;;;3.95;;
52414;SDS011;38340;52.964;6.086;2023-05-16T01:32:59;14.80;;;4.63;;
52414;SDS011;38340;52.964;6.086;2023-05-16T01:35:25;21.17;;;4.68;;
52414;SDS011;38340;52.964;6.086;2023-05-16T01:37:55;13.32;;;3.53;;
52414;SDS011;38340;52.964;6.086;2023-05-16T01:40:37;17.38;;;3.78;;
52414;SDS011;38340;52.964;6.086;2023-05-16T01:43:10;14.23;;;3.83;;
52414;SDS011;38340;52.964;6.086;2023-05-16T01:45:39;13.13;;;4.10;;
52414;SDS011;38340;52.964;6.086;2023-05-16T01:48:16;23.15;;;4.97;;
52414;SDS011;38340;52.964;6.086;2023-05-16T01:50:48;10.02;;;3.95;;
52414;SDS011;38340;52.964;6.086;2023-05-16T01:53:19;11.38;;;3.97;;
52414;SDS011;38340;52.964;6.086;2023-05-16T01:55:52;18.33;;;4.78;;
52414;SDS011;38340;52.964;6.086;2023-05-16T01:58:22;14.38;;;4.63;;
52414;SDS011;38340;52.964;6.086;2023-05-16T02:00:52;15.85;;;4.35;;
52414;SDS011;38340;52.964;6.086;2023-05-16T02:03:18;12.85;;;4.93;;
52414;SDS011;38340;52.964;6.086;2023-05-16T02:05:43;13.20;;;3.88;;
52414;SDS011;38340;52.964;6.086;2023-05-16T02:08:09;12.63;;;4.50;;
52414;SDS011;38340;52.964;6.086;2023-05-16T02:10:35;14.52;;;4.07;;
52414;SDS011;38340;52.964;6.086;2023-05-16T02:13:00;13.23;;;3.88;;
52414;SDS011;38340;52.964;6.086;2023-05-16T02:15:26;14.05;;;4.43;;
52414;SDS011;38340;52.964;6.086;2023-05-16T02:17:52;8.48;;;3.83;;
52414;SDS011;38340;52.964;6.086;2023-05-16T02:20:18;13.80;;;4.57;;
52414;SDS011;38340;52.964;6.086;2023-05-16T02:22:44;17.13;;;4.40;;
52414;SDS011;38340;52.964;6.086;2023-05-16T02:25:12;9.95;;;4.15;;
52414;SDS011;38340;52.964;6.086;2023-05-16T02:27:39;10.48;;;3.78;;
52414;SDS011;38340;52.964;6.086;2023-05-16T02:30:05;12.85;;;3.90;;
52414;SDS011;38340;52.964;6.086;2023-05-16T02:32:32;11.13;;;3.67;;
52414;SDS011;38340;52.964;6.086;2023-05-16T02:34:58;18.15;;;4.70;;
52414;SDS011;38340;52.964;6.086;2023-05-16T02:37:23;11.73;;;3.80;;
52414;SDS011;38340;52.964;6.086;2023-05-16T02:39:50;14.75;;;4.07;;
52414;SDS011;38340;52.964;6.086;2023-05-16T02:42:15;14.43;;;4.32;;
52414;SDS011;38340;52.964;6.086;2023-05-16T02:44:41;17.92;;;4.43;;
52414;SDS011;38340;52.964;6.086;2023-05-16T02:47:07;12.35;;;4.20;;
52414;SDS011;38340;52.964;6.086;2023-05-16T02:49:32;10.50;;;4.20;;
52414;SDS011;38340;52.964;6.086;2023-05-16T02:51:58;14.18;;;4.40;;
52414;SDS011;38340;52.964;6.086;2023-05-16T02:54:24;23.23;;;4.85;;
52414;SDS011;38340;52.964;6.086;2023-05-16T02:56:49;14.65;;;4.57;;
52414;SDS011;38340;52.964;6.086;2023-05-16T02:59:15;16.17;;;4.68;;
52414;SDS011;38340;52.964;6.086;2023-05-16T03:01:41;13.27;;;4.35;;
52414;SDS011;38340;52.964;6.086;2023-05-16T03:04:06;14.55;;;4.13;;
52414;SDS011;38340;52.964;6.086;2023-05-16T03:06:32;10.60;;;3.97;;
52414;SDS011;38340;52.964;6.086;2023-05-16T03:08:58;8.88;;;3.70;;
52414;SDS011;38340;52.964;6.086;2023-05-16T03:11:23;15.18;;;4.45;;
52414;SDS011;38340;52.964;6.086;2023-05-16T03:13:50;11.93;;;4.47;;
52414;SDS011;38340;52.964;6.086;2023-05-16T03:16:16;12.95;;;4.47;;
52414;SDS011;38340;52.964;6.086;2023-05-16T03:18:42;12.40;;;3.83;;
52414;SDS011;38340;52.964;6.086;2023-05-16T03:21:07;20.42;;;4.38;;
52414;SDS011;38340;52.964;6.086;2023-05-16T03:23:33;12.10;;;4.30;;
52414;SDS011;38340;52.964;6.086;2023-05-16T03:25:59;17.35;;;4.28;;
52414;SDS011;38340;52.964;6.086;2023-05-16T03:28:25;13.55;;;3.58;;
52414;SDS011;38340;52.964;6.086;2023-05-16T03:30:51;9.95;;;3.60;;
52414;SDS011;38340;52.964;6.086;2023-05-16T03:33:17;10.20;;;3.95;;
52414;SDS011;38340;52.964;6.086;2023-05-16T03:35:43;13.07;;;4.47;;
52414;SDS011;38340;52.964;6.086;2023-05-16T03:38:09;16.77;;;4.32;;
52414;SDS011;38340;52.964;6.086;2023-05-16T03:40:35;8.25;;;4.25;;
52414;SDS011;38340;52.964;6.086;2023-05-16T03:43:01;16.65;;;3.88;;
52414;SDS011;38340;52.964;6.086;2023-05-16T03:45:28;13.18;;;3.95;;
52414;SDS011;38340;52.964;6.086;2023-05-16T03:47:55;9.52;;;3.75;;
52414;SDS011;38340;52.964;6.086;2023-05-16T03:50:21;9.95;;;3.47;;
52414;SDS011;38340;52.964;6.086;2023-05-16T03:52:46;14.75;;;4.00;;
52414;SDS011;38340;52.964;6.086;2023-05-16T03:55:12;11.75;;;3.97;;
52414;SDS011;38340;52.964;6.086;2023-05-16T03:57:39;13.63;;;3.72;;
52414;SDS011;38340;52.964;6.086;2023-05-16T04:00:07;12.65;;;3.90;;
52414;SDS011;38340;52.964;6.086;2023-05-16T04:02:35;14.38;;;4.00;;
52414;SDS011;38340;52.964;6.086;2023-05-16T04:05:01;15.15;;;4.47;;
52414;SDS011;38340;52.964;6.086;2023-05-16T04:07:27;14.15;;;4.20;;
52414;SDS011;38340;52.964;6.086;2023-05-16T04:09:53;14.52;;;4.28;;
52414;SDS011;38340;52.964;6.086;2023-05-16T04:12:20;10.57;;;3.40;;
52414;SDS011;38340;52.964;6.086;2023-05-16T04:14:47;12.93;;;4.05;;
52414;SDS011;38340;52.964;6.086;2023-05-16T04:17:12;12.88;;;4.32;;
52414;SDS011;38340;52.964;6.086;2023-05-16T04:19:38;11.60;;;3.58;;
52414;SDS011;38340;52.964;6.086;2023-05-16T04:22:04;12.13;;;3.95;;
52414;SDS011;38340;52.964;6.086;2023-05-16T04:24:30;12.18;;;3.60;;
52414;SDS011;38340;52.964;6.086;2023-05-16T04:26:56;9.95;;;3.25;;
52414;SDS011;38340;52.964;6.086;2023-05-16T04:29:21;12.20;;;3.35;;
52414;SDS011;38340;52.964;6.086;2023-05-16T04:31:47;11.65;;;3.75;;
52414;SDS011;38340;52.964;6.086;2023-05-16T04:34:13;15.82;;;3.97;;
52414;SDS011;38340;52.964;6.086;2023-05-16T04:36:40;11.25;;;3.75;;
52414;SDS011;38340;52.964;6.086;2023-05-16T04:39:06;9.40;;;3.55;;
52414;SDS011;38340;52.964;6.086;2023-05-16T04:41:31;11.25;;;3.80;;
52414;SDS011;38340;52.964;6.086;2023-05-16T04:44:02;13.60;;;3.97;;
52414;SDS011;38340;52.964;6.086;2023-05-16T04:46:30;11.38;;;2.83;;
52414;SDS011;38340;52.964;6.086;2023-05-16T04:48:56;14.52;;;4.18;;
52414;SDS011;38340;52.964;6.086;2023-05-16T04:51:21;12.63;;;3.85;;
52414;SDS011;38340;52.964;6.086;2023-05-16T04:53:47;13.70;;;4.03;;
52414;SDS011;38340;52.964;6.086;2023-05-16T04:56:13;14.63;;;4.43;;
52414;SDS011;38340;52.964;6.086;2023-05-16T04:58:38;12.20;;;4.38;;
52414;SDS011;38340;52.964;6.086;2023-05-16T05:01:04;14.15;;;3.40;;
52414;SDS011;38340;52.964;6.086;2023-05-16T05:03:30;10.77;;;4.85;;
52414;SDS011;38340;52.964;6.086;2023-05-16T05:05:56;10.15;;;3.20;;
52414;SDS011;38340;52.964;6.086;2023-05-16T05:08:21;11.70;;;3.67;;
52414;SDS011;38340;52.964;6.086;2023-05-16T05:10:47;7.70;;;3.70;;
52414;SDS011;38340;52.964;6.086;2023-05-16T05:13:13;9.88;;;3.78;;
52414;SDS011;38340;52.964;6.086;2023-05-16T05:15:39;8.73;;;3.63;;
52414;SDS011;38340;52.964;6.086;2023-05-16T05:18:04;17.08;;;4.10;;
52414;SDS011;38340;52.964;6.086;2023-05-16T05:20:30;12.48;;;4.00;;
52414;SDS011;38340;52.964;6.086;2023-05-16T05:22:56;12.02;;;3.90;;
52414;SDS011;38340;52.964;6.086;2023-05-16T05:25:21;12.75;;;4.05;;
52414;SDS011;38340;52.964;6.086;2023-05-16T05:27:47;12.50;;;4.80;;
52414;SDS011;38340;52.964;6.086;2023-05-16T05:30:13;8.85;;;3.67;;
52414;SDS011;38340;52.964;6.086;2023-05-16T05:32:38;6.97;;;3.38;;
52414;SDS011;38340;52.964;6.086;2023-05-16T05:35:04;8.63;;;3.50;;
52414;SDS011;38340;52.964;6.086;2023-05-16T05:37:30;8.23;;;3.38;;
52414;SDS011;38340;52.964;6.086;2023-05-16T05:39:56;10.85;;;3.55;;
52414;SDS011;38340;52.964;6.086;2023-05-16T05:42:22;10.90;;;3.45;;
52414;SDS011;38340;52.964;6.086;2023-05-16T05:44:47;11.98;;;3.67;;
52414;SDS011;38340;52.964;6.086;2023-05-16T05:47:13;15.07;;;4.40;;
52414;SDS011;38340;52.964;6.086;2023-05-16T05:49:39;7.63;;;3.30;;
52414;SDS011;38340;52.964;6.086;2023-05-16T05:52:05;12.73;;;3.75;;
52414;SDS011;38340;52.964;6.086;2023-05-16T05:54:31;9.57;;;3.30;;
52414;SDS011;38340;52.964;6.086;2023-05-16T05:56:58;11.05;;;3.90;;
52414;SDS011;38340;52.964;6.086;2023-05-16T05:59:23;10.70;;;3.70;;
52414;SDS011;38340;52.964;6.086;2023-05-16T06:01:49;11.73;;;3.38;;
52414;SDS011;38340;52.964;6.086;2023-05-16T06:04:19;11.77;;;3.83;;
52414;SDS011;38340;52.964;6.086;2023-05-16T06:06:45;9.65;;;3.63;;
52414;SDS011;38340;52.964;6.086;2023-05-16T06:09:11;10.95;;;3.95;;
52414;SDS011;38340;52.964;6.086;2023-05-16T06:11:40;11.10;;;3.08;;
52414;SDS011;38340;52.964;6.086;2023-05-16T06:14:07;6.97;;;3.22;;
52414;SDS011;38340;52.964;6.086;2023-05-16T06:16:33;10.55;;;3.10;;
52414;SDS011;38340;52.964;6.086;2023-05-16T06:18:58;9.18;;;3.13;;
52414;SDS011;38340;52.964;6.086;2023-05-16T06:21:24;6.88;;;3.35;;
52414;SDS011;38340;52.964;6.086;2023-05-16T06:23:50;6.22;;;3.17;;
52414;SDS011;38340;52.964;6.086;2023-05-16T06:26:16;13.57;;;3.58;;
52414;SDS011;38340;52.964;6.086;2023-05-16T06:28:41;8.40;;;3.00;;
52414;SDS011;38340;52.964;6.086;2023-05-16T06:31:07;8.43;;;3.30;;
52414;SDS011;38340;52.964;6.086;2023-05-16T06:33:33;7.25;;;3.22;;
52414;SDS011;38340;52.964;6.086;2023-05-16T06:35:59;8.30;;;3.42;;
52414;SDS011;38340;52.964;6.086;2023-05-16T06:38:25;7.45;;;2.67;;
52414;SDS011;38340;52.964;6.086;2023-05-16T06:40:50;8.65;;;2.92;;
52414;SDS011;38340;52.964;6.086;2023-05-16T06:43:16;5.53;;;2.55;;
52414;SDS011;38340;52.964;6.086;2023-05-16T06:45:43;6.72;;;3.00;;
52414;SDS011;38340;52.964;6.086;2023-05-16T06:48:08;10.02;;;3.50;;
52414;SDS011;38340;52.964;6.086;2023-05-16T06:50:35;5.40;;;2.60;;
52414;SDS011;38340;52.964;6.086;2023-05-16T06:53:00;10.00;;;2.58;;
52414;SDS011;38340;52.964;6.086;2023-05-16T06:55:28;9.27;;;3.35;;
52414;SDS011;38340;52.964;6.086;2023-05-16T06:57:54;10.65;;;2.90;;
52414;SDS011;38340;52.964;6.086;2023-05-16T07:00:20;12.05;;;3.53;;
52414;SDS011;38340;52.964;6.086;2023-05-16T07:02:46;7.60;;;2.80;;
52414;SDS011;38340;52.964;6.086;2023-05-16T07:05:11;5.57;;;2.60;;
52414;SDS011;38340;52.964;6.086;2023-05-16T07:07:37;9.68;;;3.28;;
52414;SDS011;38340;52.964;6.086;2023-05-16T07:10:03;6.65;;;3.05;;
52414;SDS011;38340;52.964;6.086;2023-05-16T07:12:29;8.73;;;3.33;;
52414;SDS011;38340;52.964;6.086;2023-05-16T07:14:55;7.20;;;3.03;;
52414;SDS011;38340;52.964;6.086;2023-05-16T07:17:20;10.90;;;3.25;;
52414;SDS011;38340;52.964;6.086;2023-05-16T07:19:46;9.00;;;3.28;;
52414;SDS011;38340;52.964;6.086;2023-05-16T07:22:12;9.57;;;3.83;;
52414;SDS011;38340;52.964;6.086;2023-05-16T07:24:38;9.85;;;3.35;;
52414;SDS011;38340;52.964;6.086;2023-05-16T07:27:03;6.75;;;2.90;;
52414;SDS011;38340;52.964;6.086;2023-05-16T07:29:29;9.50;;;3.95;;
52414;SDS011;38340;52.964;6.086;2023-05-16T07:31:55;8.07;;;3.45;;
52414;SDS011;38340;52.964;6.086;2023-05-16T07:34:20;12.32;;;4.18;;
52414;SDS011;38340;52.964;6.086;2023-05-16T07:36:46;10.85;;;3.88;;
52414;SDS011;38340;52.964;6.086;2023-05-16T07:39:12;10.27;;;3.05;;
52414;SDS011;38340;52.964;6.086;2023-05-16T07:41:38;11.80;;;3.42;;
52414;SDS011;38340;52.964;6.086;2023-05-16T07:44:04;10.65;;;3.38;;
52414;SDS011;38340;52.964;6.086;2023-05-16T07:46:30;9.63;;;3.28;;
52414;SDS011;38340;52.964;6.086;2023-05-16T07:48:55;10.05;;;4.05;;
52414;SDS011;38340;52.964;6.086;2023-05-16T07:51:21;9.05;;;3.08;;
52414;SDS011;38340;52.964;6.086;2023-05-16T07:53:47;6.53;;;3.25;;
52414;SDS011;38340;52.964;6.086;2023-05-16T07:56:12;11.77;;;4.22;;
52414;SDS011;38340;52.964;6.086;2023-05-16T07:58:39;8.80;;;3.30;;
52414;SDS011;38340;52.964;6.086;2023-05-16T08:01:05;9.10;;;3.13;;
52414;SDS011;38340;52.964;6.086;2023-05-16T08:03:31;8.00;;;2.67;;
52414;SDS011;38340;52.964;6.086;2023-05-16T08:05:57;13.75;;;4.43;;
52414;SDS011;38340;52.964;6.086;2023-05-16T08:08:22;9.45;;;3.35;;
52414;SDS011;38340;52.964;6.086;2023-05-16T08:10:48;10.07;;;4.35;;
52414;SDS011;38340;52.964;6.086;2023-05-16T08:13:14;10.65;;;3.55;;
52414;SDS011;38340;52.964;6.086;2023-05-16T08:15:39;13.10;;;3.47;;
52414;SDS011;38340;52.964;6.086;2023-05-16T08:18:07;5.13;;;2.60;;
52414;SDS011;38340;52.964;6.086;2023-05-16T08:20:40;6.72;;;2.85;;
52414;SDS011;38340;52.964;6.086;2023-05-16T08:23:06;6.10;;;2.50;;
52414;SDS011;38340;52.964;6.086;2023-05-16T08:25:33;4.88;;;2.70;;
52414;SDS011;38340;52.964;6.086;2023-05-16T08:27:58;9.15;;;3.03;;
52414;SDS011;38340;52.964;6.086;2023-05-16T08:30:26;8.30;;;2.83;;
52414;SDS011;38340;52.964;6.086;2023-05-16T08:32:52;8.18;;;3.13;;
52414;SDS011;38340;52.964;6.086;2023-05-16T08:35:18;7.60;;;3.08;;
52414;SDS011;38340;52.964;6.086;2023-05-16T08:37:43;9.50;;;3.40;;
52414;SDS011;38340;52.964;6.086;2023-05-16T08:40:09;10.90;;;3.03;;
52414;SDS011;38340;52.964;6.086;2023-05-16T08:42:36;11.95;;;3.45;;
52414;SDS011;38340;52.964;6.086;2023-05-16T08:45:03;5.13;;;2.78;;
52414;SDS011;38340;52.964;6.086;2023-05-16T08:47:30;8.30;;;3.10;;
52414;SDS011;38340;52.964;6.086;2023-05-16T08:49:57;7.47;;;3.10;;
52414;SDS011;38340;52.964;6.086;2023-05-16T08:52:25;8.88;;;3.70;;
52414;SDS011;38340;52.964;6.086;2023-05-16T08:54:58;9.48;;;3.10;;
52414;SDS011;38340;52.964;6.086;2023-05-16T08:57:29;6.50;;;3.10;;
52414;SDS011;38340;52.964;6.086;2023-05-16T08:59:56;8.10;;;2.70;;
52414;SDS011;38340;52.964;6.086;2023-05-16T09:02:23;7.78;;;3.38;;
52414;SDS011;38340;52.964;6.086;2023-05-16T09:04:49;8.65;;;3.90;;
52414;SDS011;38340;52.964;6.086;2023-05-16T09:07:15;9.57;;;3.03;;
52414;SDS011;38340;52.964;6.086;2023-05-16T09:09:41;7.68;;;3.05;;
52414;SDS011;38340;52.964;6.086;2023-05-16T09:12:06;12.20;;;3.45;;
52414;SDS011;38340;52.964;6.086;2023-05-16T09:14:32;10.13;;;3.25;;
52414;SDS011;38340;52.964;6.086;2023-05-16T09:17:05;8.88;;;3.13;;
52414;SDS011;38340;52.964;6.086;2023-05-16T09:19:36;9.32;;;3.00;;
52414;SDS011;38340;52.964;6.086;2023-05-16T09:22:03;8.48;;;3.42;;
52414;SDS011;38340;52.964;6.086;2023-05-16T09:24:29;8.75;;;3.15;;
52414;SDS011;38340;52.964;6.086;2023-05-16T09:26:55;10.30;;;3.50;;
52414;SDS011;38340;52.964;6.086;2023-05-16T09:29:21;12.00;;;3.45;;
52414;SDS011;38340;52.964;6.086;2023-05-16T09:31:48;10.05;;;3.63;;
52414;SDS011;38340;52.964;6.086;2023-05-16T09:34:14;9.85;;;3.30;;
52414;SDS011;38340;52.964;6.086;2023-05-16T09:36:39;7.63;;;2.90;;
52414;SDS011;38340;52.964;6.086;2023-05-16T09:39:05;7.65;;;3.15;;
52414;SDS011;38340;52.964;6.086;2023-05-16T09:41:34;15.38;;;3.42;;
52414;SDS011;38340;52.964;6.086;2023-05-16T09:44:04;10.70;;;3.35;;
52414;SDS011;38340;52.964;6.086;2023-05-16T09:46:32;8.63;;;3.42;;
52414;SDS011;38340;52.964;6.086;2023-05-16T09:48:59;12.57;;;3.15;;
52414;SDS011;38340;52.964;6.086;2023-05-16T09:51:24;7.82;;;3.55;;
52414;SDS011;38340;52.964;6.086;2023-05-16T09:53:51;8.38;;;3.55;;
52414;SDS011;38340;52.964;6.086;2023-05-16T09:56:16;18.95;;;4.13;;
52414;SDS011;38340;52.964;6.086;2023-05-16T09:58:43;6.30;;;3.10;;
52414;SDS011;38340;52.964;6.086;2023-05-16T10:01:10;8.23;;;3.10;;
52414;SDS011;38340;52.964;6.086;2023-05-16T10:03:37;5.45;;;2.92;;
52414;SDS011;38340;52.964;6.086;2023-05-16T10:06:04;11.77;;;3.45;;
52414;SDS011;38340;52.964;6.086;2023-05-16T10:08:32;10.73;;;3.30;;
52414;SDS011;38340;52.964;6.086;2023-05-16T10:11:00;6.35;;;3.05;;
52414;SDS011;38340;52.964;6.086;2023-05-16T10:13:28;7.93;;;2.80;;
52414;SDS011;38340;52.964;6.086;2023-05-16T10:15:56;8.80;;;3.30;;
52414;SDS011;38340;52.964;6.086;2023-05-16T10:18:30;8.25;;;3.40;;
52414;SDS011;38340;52.964;6.086;2023-05-16T10:20:56;7.25;;;3.03;;
52414;SDS011;38340;52.964;6.086;2023-05-16T10:23:28;10.30;;;3.40;;
52414;SDS011;38340;52.964;6.086;2023-05-16T10:25:57;8.35;;;3.22;;
52414;SDS011;38340;52.964;6.086;2023-05-16T10:28:23;11.68;;;3.30;;
52414;SDS011;38340;52.964;6.086;2023-05-16T10:30:49;9.20;;;3.25;;
52414;SDS011;38340;52.964;6.086;2023-05-16T10:33:16;7.00;;;3.55;;
52414;SDS011;38340;52.964;6.086;2023-05-16T10:35:44;4.45;;;2.80;;
52414;SDS011;38340;52.964;6.086;2023-05-16T10:38:11;6.82;;;3.25;;
52414;SDS011;38340;52.964;6.086;2023-05-16T10:40:41;9.32;;;3.53;;
52414;SDS011;38340;52.964;6.086;2023-05-16T10:43:08;12.05;;;3.40;;
52414;SDS011;38340;52.964;6.086;2023-05-16T10:45:34;8.80;;;2.83;;
52414;SDS011;38340;52.964;6.086;2023-05-16T10:48:05;6.63;;;3.45;;
52414;SDS011;38340;52.964;6.086;2023-05-16T10:53:13;7.38;;;3.47;;
52414;SDS011;38340;52.964;6.086;2023-05-16T10:58:33;9.13;;;4.13;;
52414;SDS011;38340;52.964;6.086;2023-05-16T11:06:32;10.55;;;4.05;;
52414;SDS011;38340;52.964;6.086;2023-05-16T11:11:38;7.43;;;3.33;;
52414;SDS011;38340;52.964;6.086;2023-05-16T11:14:04;11.55;;;3.75;;
52414;SDS011;38340;52.964;6.086;2023-05-16T11:16:29;5.47;;;2.92;;
52414;SDS011;38340;52.964;6.086;2023-05-16T11:19:03;6.10;;;3.13;;
52414;SDS011;38340;52.964;6.086;2023-05-16T11:24:29;3.90;;;3.10;;
52414;SDS011;38340;52.964;6.086;2023-05-16T11:26:56;6.80;;;3.47;;
52414;SDS011;38340;52.964;6.086;2023-05-16T11:29:24;7.32;;;3.65;;
52414;SDS011;38340;52.964;6.086;2023-05-16T11:32:03;8.32;;;3.38;;
52414;SDS011;38340;52.964;6.086;2023-05-16T11:34:30;12.00;;;4.32;;
52414;SDS011;38340;52.964;6.086;2023-05-16T11:36:59;9.35;;;3.20;;
52414;SDS011;38340;52.964;6.086;2023-05-16T11:39:26;8.15;;;3.10;;
52414;SDS011;38340;52.964;6.086;2023-05-16T11:41:54;6.15;;;3.50;;
52414;SDS011;38340;52.964;6.086;2023-05-16T11:44:20;7.47;;;3.20;;
52414;SDS011;38340;52.964;6.086;2023-05-16T11:46:46;10.43;;;3.72;;
52414;SDS011;38340;52.964;6.086;2023-05-16T11:49:11;8.02;;;3.15;;
52414;SDS011;38340;52.964;6.086;2023-05-16T11:51:40;7.03;;;3.58;;
52414;SDS011;38340;52.964;6.086;2023-05-16T11:54:11;11.57;;;3.50;;
52414;SDS011;38340;52.964;6.086;2023-05-16T11:56:38;8.93;;;3.33;;
52414;SDS011;38340;52.964;6.086;2023-05-16T11:59:05;4.82;;;3.20;;
52414;SDS011;38340;52.964;6.086;2023-05-16T12:01:34;6.68;;;3.40;;
52414;SDS011;38340;52.964;6.086;2023-05-16T12:04:22;5.63;;;3.78;;
52414;SDS011;38340;52.964;6.086;2023-05-16T12:06:56;5.30;;;3.35;;
52414;SDS011;38340;52.964;6.086;2023-05-16T12:09:23;7.40;;;3.72;;
52414;SDS011;38340;52.964;6.086;2023-05-16T12:11:49;5.72;;;3.30;;
52414;SDS011;38340;52.964;6.086;2023-05-16T12:14:16;9.75;;;3.83;;
52414;SDS011;38340;52.964;6.086;2023-05-16T12:16:43;5.60;;;3.67;;
52414;SDS011;38340;52.964;6.086;2023-05-16T12:19:10;7.85;;;4.13;;
52414;SDS011;38340;52.964;6.086;2023-05-16T12:21:37;11.10;;;4.47;;
52414;SDS011;38340;52.964;6.086;2023-05-16T12:24:02;8.45;;;4.57;;
52414;SDS011;38340;52.964;6.086;2023-05-16T12:26:32;8.75;;;4.00;;
52414;SDS011;38340;52.964;6.086;2023-05-16T12:29:01;8.00;;;4.50;;
52414;SDS011;38340;52.964;6.086;2023-05-16T12:31:30;10.30;;;5.43;;
52414;SDS011;38340;52.964;6.086;2023-05-16T12:34:03;9.15;;;4.10;;
52414;SDS011;38340;52.964;6.086;2023-05-16T12:36:32;9.65;;;3.88;;
52414;SDS011;38340;52.964;6.086;2023-05-16T12:39:02;6.28;;;3.70;;
52414;SDS011;38340;52.964;6.086;2023-05-16T12:41:28;8.93;;;3.95;;
52414;SDS011;38340;52.964;6.086;2023-05-16T12:44:05;6.65;;;4.28;;
52414;SDS011;38340;52.964;6.086;2023-05-16T12:46:39;5.85;;;4.00;;
52414;SDS011;38340;52.964;6.086;2023-05-16T12:49:06;8.32;;;4.45;;
52414;SDS011;38340;52.964;6.086;2023-05-16T12:51:32;7.13;;;3.95;;
52414;SDS011;38340;52.964;6.086;2023-05-16T12:54:05;6.65;;;4.50;;
52414;SDS011;38340;52.964;6.086;2023-05-16T12:56:36;9.90;;;4.68;;
52414;SDS011;38340;52.964;6.086;2023-05-16T12:59:03;6.20;;;4.25;;
52414;SDS011;38340;52.964;6.086;2023-05-16T13:01:29;6.18;;;4.68;;
52414;SDS011;38340;52.964;6.086;2023-05-16T13:03:54;6.22;;;4.47;;
52414;SDS011;38340;52.964;6.086;2023-05-16T13:06:20;8.48;;;4.63;;
52414;SDS011;38340;52.964;6.086;2023-05-16T13:08:46;6.93;;;4.40;;
52414;SDS011;38340;52.964;6.086;2023-05-16T13:11:11;8.02;;;4.60;;
52414;SDS011;38340;52.964;6.086;2023-05-16T13:13:37;11.27;;;4.40;;
52414;SDS011;38340;52.964;6.086;2023-05-16T13:16:03;8.35;;;4.60;;
52414;SDS011;38340;52.964;6.086;2023-05-16T13:18:29;6.25;;;4.00;;
52414;SDS011;38340;52.964;6.086;2023-05-16T13:20:55;7.25;;;3.70;;
52414;SDS011;38340;52.964;6.086;2023-05-16T13:23:20;6.40;;;3.95;;
52414;SDS011;38340;52.964;6.086;2023-05-16T13:25:46;9.95;;;4.20;;
52414;SDS011;38340;52.964;6.086;2023-05-16T13:28:12;7.55;;;4.70;;
52414;SDS011;38340;52.964;6.086;2023-05-16T13:30:38;7.82;;;4.10;;
52414;SDS011;38340;52.964;6.086;2023-05-16T13:33:04;10.95;;;5.05;;
52414;SDS011;38340;52.964;6.086;2023-05-16T13:35:29;11.43;;;5.30;;
52414;SDS011;38340;52.964;6.086;2023-05-16T13:37:55;7.18;;;4.63;;
52414;SDS011;38340;52.964;6.086;2023-05-16T13:40:21;6.93;;;4.43;;
52414;SDS011;38340;52.964;6.086;2023-05-16T13:42:47;8.23;;;4.95;;
52414;SDS011;38340;52.964;6.086;2023-05-16T13:45:13;10.32;;;5.25;;
52414;SDS011;38340;52.964;6.086;2023-05-16T13:47:38;8.30;;;4.72;;
52414;SDS011;38340;52.964;6.086;2023-05-16T13:50:04;12.50;;;5.55;;
52414;SDS011;38340;52.964;6.086;2023-05-16T13:52:34;8.38;;;5.53;;
52414;SDS011;38340;52.964;6.086;2023-05-16T13:55:03;8.60;;;5.78;;
52414;SDS011;38340;52.964;6.086;2023-05-16T13:57:29;10.55;;;6.53;;
52414;SDS011;38340;52.964;6.086;2023-05-16T13:59:55;10.68;;;6.00;;
52414;SDS011;38340;52.964;6.086;2023-05-16T14:02:21;9.70;;;6.35;;
52414;SDS011;38340;52.964;6.086;2023-05-16T14:04:49;8.82;;;5.28;;
52414;SDS011;38340;52.964;6.086;2023-05-16T14:07:15;9.05;;;5.53;;
52414;SDS011;38340;52.964;6.086;2023-05-16T14:09:41;8.23;;;5.43;;
52414;SDS011;38340;52.964;6.086;2023-05-16T14:12:08;8.32;;;4.80;;
52414;SDS011;38340;52.964;6.086;2023-05-16T14:14:34;7.47;;;5.13;;
52414;SDS011;38340;52.964;6.086;2023-05-16T14:17:00;11.65;;;4.90;;
52414;SDS011;38340;52.964;6.086;2023-05-16T14:19:26;8.90;;;5.35;;
52414;SDS011;38340;52.964;6.086;2023-05-16T14:21:51;6.60;;;4.88;;
52414;SDS011;38340;52.964;6.086;2023-05-16T14:24:17;9.95;;;5.05;;
52414;SDS011;38340;52.964;6.086;2023-05-16T14:26:43;12.10;;;5.00;;
52414;SDS011;38340;52.964;6.086;2023-05-16T14:29:08;7.63;;;4.70;;
52414;SDS011;38340;52.964;6.086;2023-05-16T14:31:34;9.32;;;4.93;;
52414;SDS011;38340;52.964;6.086;2023-05-16T14:34:00;8.15;;;4.63;;
52414;SDS011;38340;52.964;6.086;2023-05-16T14:36:26;10.65;;;5.03;;
52414;SDS011;38340;52.964;6.086;2023-05-16T14:38:52;11.27;;;4.88;;
52414;SDS011;38340;52.964;6.086;2023-05-16T14:41:18;8.00;;;4.18;;
52414;SDS011;38340;52.964;6.086;2023-05-16T14:43:43;7.25;;;4.30;;
52414;SDS011;38340;52.964;6.086;2023-05-16T14:46:10;7.88;;;4.60;;
52414;SDS011;38340;52.964;6.086;2023-05-16T14:48:36;11.35;;;4.20;;
52414;SDS011;38340;52.964;6.086;2023-05-16T14:51:02;10.02;;;4.57;;
52414;SDS011;38340;52.964;6.086;2023-05-16T14:53:29;9.55;;;4.57;;
52414;SDS011;38340;52.964;6.086;2023-05-16T14:55:54;8.25;;;4.78;;
52414;SDS011;38340;52.964;6.086;2023-05-16T14:58:20;6.18;;;4.07;;
52414;SDS011;38340;52.964;6.086;2023-05-16T15:00:46;8.23;;;3.58;;